Time;durP1;ratioP1;P1;durP2;ratioP2;P2;SDS_P1;SDS_P2;PMS_P1;PMS_P2;Temp;Humidity;BMP_temperature;BMP_pressure;BME280_temperature;BME280_humidity;BME280_pressure;Samples;Min_cycle;Max_cycle;Signal;HPM_P1;HPM_P2
2023/12/28 00:02:09;;;;;;;21.17;14.80;;;0.80;99.90;;;;;;5035482;28;20208;-60
2023/12/28 00:04:37;;;;;;;24.07;15.07;;;0.70;99.90;;;;;;5046895;28;20199;-60
2023/12/28 00:07:06;;;;;;;17.43;13.23;;;0.70;99.90;;;;;;5046226;28;20224;-60
2023/12/28 00:09:33;;;;;;;18.50;12.87;;;0.80;99.90;;;;;;5045165;28;20198;-60
2023/12/28 00:12:01;;;;;;;20.13;12.93;;;0.60;99.90;;;;;;5046437;28;20667;-60
2023/12/28 00:14:28;;;;;;;16.60;12.20;;;0.80;99.90;;;;;;5032859;28;20217;-61
2023/12/28 00:16:55;;;;;;;13.70;11.27;;;0.80;99.90;;;;;;5034499;28;20282;-60
2023/12/28 00:19:22;;;;;;;17.00;11.73;;;0.80;99.90;;;;;;5045411;28;20201;-60
2023/12/28 00:21:50;;;;;;;12.53;10.20;;;0.80;99.90;;;;;;5059446;28;20203;-60
2023/12/28 00:24:17;;;;;;;14.93;11.03;;;0.90;99.90;;;;;;5052980;28;20667;-60
2023/12/28 00:26:44;;;;;;;11.50;9.97;;;0.90;99.90;;;;;;5052214;28;20292;-60
2023/12/28 00:29:11;;;;;;;17.90;11.67;;;0.80;99.90;;;;;;5046023;28;20280;-60
2023/12/28 00:31:38;;;;;;;19.07;11.73;;;0.70;99.90;;;;;;5037453;28;20204;-60
2023/12/28 00:34:05;;;;;;;21.63;12.27;;;0.80;99.90;;;;;;5014483;28;20224;-60
2023/12/28 00:36:32;;;;;;;27.70;13.53;;;0.70;99.90;;;;;;5017075;28;20228;-60
2023/12/28 00:39:00;;;;;;;18.50;12.70;;;0.60;99.90;;;;;;5045484;28;20205;-60
2023/12/28 00:41:27;;;;;;;18.27;12.63;;;0.70;99.90;;;;;;5041368;28;20264;-60
2023/12/28 00:43:54;;;;;;;15.20;11.40;;;0.70;99.90;;;;;;5026003;28;20899;-60
2023/12/28 00:46:21;;;;;;;16.77;11.63;;;0.60;99.90;;;;;;5041678;28;20228;-60
2023/12/28 00:48:48;;;;;;;18.87;10.73;;;0.70;99.90;;;;;;5036135;28;20211;-61
2023/12/28 00:51:15;;;;;;;14.83;10.30;;;0.60;99.90;;;;;;5052758;28;20255;-61
2023/12/28 00:53:42;;;;;;;16.03;10.77;;;0.60;99.90;;;;;;5047345;28;20318;-60
2023/12/28 00:56:12;;;;;;;16.07;11.67;;;0.70;99.90;;;;;;5040847;28;20302;-60
2023/12/28 00:58:40;;;;;;;18.53;12.87;;;0.70;99.90;;;;;;5042462;28;20254;-61
2023/12/28 01:01:07;;;;;;;19.73;12.23;;;0.50;99.90;;;;;;5036908;28;20200;-60
2023/12/28 01:03:34;;;;;;;15.43;12.53;;;0.40;99.90;;;;;;5032823;28;20258;-60
2023/12/28 01:06:01;;;;;;;17.07;13.17;;;0.50;99.90;;;;;;5035297;28;20229;-60
2023/12/28 01:08:29;;;;;;;12.93;11.53;;;0.50;99.90;;;;;;5042260;28;20730;-60
2023/12/28 01:10:56;;;;;;;17.33;13.00;;;0.50;99.90;;;;;;5037567;28;20198;-61
2023/12/28 01:13:24;;;;;;;17.67;12.33;;;0.50;99.90;;;;;;5033892;28;20276;-61
2023/12/28 01:15:51;;;;;;;16.90;12.10;;;0.40;99.90;;;;;;5039923;28;20274;-61
2023/12/28 01:18:18;;;;;;;19.37;12.67;;;0.40;99.90;;;;;;5041425;28;20200;-63
2023/12/28 01:20:45;;;;;;;12.87;11.63;;;;;;;;;;5022859;28;20204;-61
2023/12/28 01:23:12;;;;;;;16.07;12.13;;;0.30;99.90;;;;;;5011998;28;20200;-61
2023/12/28 01:25:39;;;;;;;19.20;13.20;;;0.40;99.90;;;;;;5044881;28;20260;-61
2023/12/28 01:28:06;;;;;;;17.00;12.03;;;0.30;99.90;;;;;;5030372;28;20196;-61
2023/12/28 01:30:34;;;;;;;14.07;10.97;;;0.30;99.90;;;;;;5040468;28;20203;-61
2023/12/28 01:33:01;;;;;;;17.43;11.63;;;0.30;99.90;;;;;;5049509;28;20224;-61
2023/12/28 01:35:28;;;;;;;17.57;12.80;;;0.20;99.90;;;;;;5044126;28;20245;-61
2023/12/28 01:37:57;;;;;;;16.90;12.07;;;0.10;99.90;;;;;;5021993;28;20647;-61
2023/12/28 01:40:24;;;;;;;16.27;11.37;;;0.40;99.90;;;;;;5045503;28;20203;-61
2023/12/28 01:42:51;;;;;;;15.43;11.40;;;0.20;99.90;;;;;;5038920;28;20251;-61
2023/12/28 01:45:18;;;;;;;18.60;12.13;;;0.30;99.90;;;;;;5036568;28;20666;-61
2023/12/28 01:47:48;;;;;;;18.33;12.00;;;0.20;99.90;;;;;;5041929;28;20224;-61
2023/12/28 01:50:15;;;;;;;13.87;11.87;;;0.30;99.90;;;;;;5044492;28;20261;-60
2023/12/28 01:52:42;;;;;;;16.23;12.27;;;0.30;99.90;;;;;;5047877;28;20203;-61
2023/12/28 01:55:09;;;;;;;15.67;12.27;;;0.10;99.90;;;;;;5040063;28;20661;-61
2023/12/28 01:57:36;;;;;;;15.13;11.97;;;0.30;99.90;;;;;;5038152;28;20234;-61
2023/12/28 02:00:04;;;;;;;16.93;11.63;;;0.10;99.90;;;;;;5032132;28;20197;-61
2023/12/28 02:02:32;;;;;;;19.60;12.50;;;0.30;99.90;;;;;;5033046;28;20212;-61
2023/12/28 02:05:00;;;;;;;16.23;11.63;;;0.10;99.90;;;;;;5033090;28;20230;-61
2023/12/28 02:07:30;;;;;;;17.13;11.43;;;0.30;99.90;;;;;;5037159;28;20277;-61
2023/12/28 02:09:57;;;;;;;14.30;11.00;;;0.10;99.90;;;;;;5041018;28;20253;-61
2023/12/28 02:12:24;;;;;;;13.43;10.27;;;0.00;99.90;;;;;;5033745;28;20271;-62
2023/12/28 02:14:51;;;;;;;14.83;10.10;;;0.00;99.90;;;;;;5035793;28;20831;-61
2023/12/28 02:17:23;;;;;;;15.37;10.60;;;0.00;99.90;;;;;;5039203;28;20486;-62
2023/12/28 02:19:53;;;;;;;15.10;10.33;;;0.00;99.90;;;;;;5045911;28;20266;-62
2023/12/28 02:22:24;;;;;;;13.33;10.63;;;0.00;99.90;;;;;;5037030;28;20199;-62
2023/12/28 02:25:07;;;;;;;11.87;10.33;;;0.00;99.90;;;;;;5050092;28;20271;-62
2023/12/28 02:27:36;;;;;;;18.37;10.80;;;0.00;99.90;;;;;;5048210;28;20687;-62
2023/12/28 02:30:04;;;;;;;15.20;9.63;;;0.30;99.90;;;;;;5031899;28;20744;-62
2023/12/28 02:32:41;;;;;;;12.27;10.20;;;0.10;99.90;;;;;;5045885;28;20264;-61
2023/12/28 02:35:17;;;;;;;13.30;10.07;;;0.10;99.90;;;;;;5039858;28;20219;-62
2023/12/28 02:37:48;;;;;;;15.33;10.43;;;0.10;99.90;;;;;;5032352;28;20324;-62
2023/12/28 02:40:18;;;;;;;13.43;10.43;;;0.00;99.90;;;;;;5046343;28;20617;-62
2023/12/28 02:42:44;;;;;;;14.90;10.07;;;0.00;99.90;;;;;;5049807;28;20199;-62
2023/12/28 02:45:12;;;;;;;14.53;9.67;;;0.00;99.90;;;;;;5044321;28;20641;-62
2023/12/28 02:47:38;;;;;;;12.37;9.13;;;0.10;99.90;;;;;;5042004;28;20224;-62
2023/12/28 02:50:07;;;;;;;16.97;9.77;;;0.10;99.90;;;;;;5038797;28;20191;-62
2023/12/28 02:52:34;;;;;;;11.60;9.30;;;0.00;99.90;;;;;;5046253;28;20672;-62
2023/12/28 02:55:01;;;;;;;15.03;8.83;;;0.10;99.90;;;;;;5047566;28;20239;-62
2023/12/28 02:57:29;;;;;;;13.70;8.83;;;0.00;99.90;;;;;;5045070;28;20215;-62
2023/12/28 02:59:56;;;;;;;13.40;9.37;;;0.10;99.90;;;;;;5047720;28;20198;-62
2023/12/28 03:02:24;;;;;;;8.93;8.03;;;0.00;99.90;;;;;;5041965;28;20647;-62
2023/12/28 03:04:51;;;;;;;11.27;7.43;;;0.00;99.90;;;;;;5033030;28;20236;-62
2023/12/28 03:07:18;;;;;;;10.47;8.87;;;0.00;99.90;;;;;;5032228;28;20223;-62
2023/12/28 03:09:45;;;;;;;9.73;7.80;;;0.10;99.90;;;;;;5038296;28;20266;-61
2023/12/28 03:12:12;;;;;;;10.00;8.10;;;0.20;99.90;;;;;;5043797;28;20203;-62
2023/12/28 03:14:40;;;;;;;14.60;8.07;;;0.20;99.90;;;;;;5034244;28;20269;-62
2023/12/28 03:17:07;;;;;;;14.80;8.70;;;0.10;99.90;;;;;;5036301;28;20226;-62
2023/12/28 03:19:34;;;;;;;12.43;8.77;;;0.50;99.90;;;;;;5032486;28;20268;-62
2023/12/28 03:22:01;;;;;;;10.97;8.17;;;0.50;99.90;;;;;;5045904;28;20251;-62
2023/12/28 03:24:29;;;;;;;9.87;7.37;;;0.30;99.90;;;;;;5045685;28;20226;-62
2023/12/28 03:26:57;;;;;;;11.67;8.27;;;0.30;99.90;;;;;;5048936;28;20228;-62
2023/12/28 03:29:25;;;;;;;9.90;7.37;;;0.10;99.90;;;;;;5050661;28;20202;-62
2023/12/28 03:31:56;;;;;;;11.27;7.87;;;0.30;99.90;;;;;;5049733;28;20204;-62
2023/12/28 03:34:23;;;;;;;11.80;8.60;;;0.10;99.90;;;;;;5036347;28;20902;-62
2023/12/28 03:36:50;;;;;;;12.03;8.17;;;0.30;99.90;;;;;;5040419;28;20782;-62
2023/12/28 03:39:17;;;;;;;10.43;7.93;;;0.20;99.90;;;;;;5050955;28;20206;-62
2023/12/28 03:41:44;;;;;;;16.27;8.37;;;0.10;99.90;;;;;;5049869;28;20205;-63
2023/12/28 03:44:11;;;;;;;9.97;8.77;;;0.20;99.90;;;;;;5050971;28;20250;-62
2023/12/28 03:46:38;;;;;;;11.43;8.97;;;0.10;99.90;;;;;;5049394;28;20218;-62
2023/12/28 03:49:06;;;;;;;11.13;8.60;;;0.30;99.90;;;;;;5049920;28;20204;-62
2023/12/28 03:51:33;;;;;;;8.90;7.97;;;0.20;99.90;;;;;;5035709;28;20258;-62
2023/12/28 03:54:00;;;;;;;10.57;8.40;;;0.30;99.90;;;;;;5033800;28;20228;-61
2023/12/28 03:56:29;;;;;;;13.13;8.70;;;0.20;99.90;;;;;;5047016;28;20272;-62
2023/12/28 03:58:56;;;;;;;12.03;8.33;;;0.10;99.90;;;;;;5047912;28;20208;-62
2023/12/28 04:01:23;;;;;;;12.40;8.63;;;0.10;99.90;;;;;;5046841;28;20203;-62
2023/12/28 04:03:50;;;;;;;11.17;7.87;;;0.00;99.90;;;;;;5047637;28;20257;-62
2023/12/28 04:06:19;;;;;;;11.70;9.60;;;0.00;99.90;;;;;;5057081;28;20281;-62
2023/12/28 04:08:46;;;;;;;7.53;6.10;;;-0.10;99.90;;;;;;5039712;28;20248;-62
2023/12/28 04:11:13;;;;;;;6.67;5.43;;;-0.10;99.90;;;;;;5039669;28;20203;-61
2023/12/28 04:13:40;;;;;;;7.90;6.10;;;0.30;99.90;;;;;;5044880;28;20224;-62
2023/12/28 04:16:09;;;;;;;5.77;4.87;;;0.40;99.90;;;;;;5037879;28;20260;-62
2023/12/28 04:18:36;;;;;;;6.07;5.07;;;0.40;99.90;;;;;;5026585;28;20238;-61
2023/12/28 04:21:03;;;;;;;4.90;4.50;;;0.40;99.90;;;;;;5034083;28;20204;-62
2023/12/28 04:23:31;;;;;;;6.70;5.00;;;0.50;99.90;;;;;;5032295;28;20202;-62
2023/12/28 04:25:59;;;;;;;5.90;5.13;;;0.50;99.90;;;;;;5033779;28;20239;-62
2023/12/28 04:28:26;;;;;;;5.20;4.77;;;0.60;99.90;;;;;;5033312;28;20642;-62
2023/12/28 04:30:53;;;;;;;7.80;4.67;;;0.80;99.90;;;;;;5033912;28;20267;-62
2023/12/28 04:33:20;;;;;;;5.30;4.80;;;0.50;99.90;;;;;;5031722;28;20255;-62
2023/12/28 04:35:47;;;;;;;8.53;5.00;;;0.50;99.90;;;;;;5033831;28;20221;-62
2023/12/28 04:38:14;;;;;;;8.30;5.57;;;0.50;99.90;;;;;;5033515;28;20223;-62
2023/12/28 04:40:43;;;;;;;6.90;5.13;;;0.50;99.90;;;;;;5039194;28;20207;-62
2023/12/28 04:43:10;;;;;;;6.27;5.37;;;0.40;99.90;;;;;;5029589;28;20669;-62
2023/12/28 04:45:37;;;;;;;7.07;5.27;;;0.30;99.90;;;;;;5027599;28;20674;-62
2023/12/28 04:48:05;;;;;;;8.00;5.53;;;0.30;99.90;;;;;;5030956;28;20208;-62
2023/12/28 04:50:32;;;;;;;7.03;4.57;;;0.30;99.90;;;;;;5032971;28;20218;-62
2023/12/28 04:52:59;;;;;;;8.77;4.93;;;0.30;99.90;;;;;;5033125;28;20699;-61
2023/12/28 04:55:28;;;;;;;12.03;5.97;;;0.30;99.90;;;;;;5033314;28;20225;-62
2023/12/28 04:57:56;;;;;;;8.57;5.73;;;0.40;99.90;;;;;;5046947;28;20316;-61
2023/12/28 05:00:24;;;;;;;7.43;5.80;;;0.50;99.90;;;;;;5041185;28;20199;-62
2023/12/28 05:02:51;;;;;;;6.43;5.03;;;0.40;99.90;;;;;;5032952;28;20221;-62
2023/12/28 05:05:18;;;;;;;8.03;5.10;;;0.30;99.90;;;;;;5033671;28;20253;-62
2023/12/28 05:07:45;;;;;;;4.80;4.10;;;0.40;99.90;;;;;;5033479;28;20675;-62
2023/12/28 05:10:11;;;;;;;4.30;3.77;;;0.50;99.90;;;;;;5032568;28;20263;-62
2023/12/28 05:12:38;;;;;;;5.80;4.30;;;0.40;99.90;;;;;;5036181;28;20640;-62
2023/12/28 05:15:08;;;;;;;6.93;4.00;;;0.40;99.90;;;;;;5034931;28;20310;-62
2023/12/28 05:17:35;;;;;;;4.00;3.73;;;0.40;99.90;;;;;;5043536;28;20227;-62
2023/12/28 05:20:02;;;;;;;3.97;3.67;;;0.50;99.90;;;;;;5031705;28;20205;-62
2023/12/28 05:22:29;;;;;;;5.17;4.07;;;0.40;99.90;;;;;;5033065;28;20245;-61
2023/12/28 05:24:55;;;;;;;3.93;3.17;;;0.40;99.90;;;;;;5032722;28;20247;-62
2023/12/28 05:27:22;;;;;;;3.47;2.67;;;1.20;99.90;;;;;;5031812;28;20315;-62
2023/12/28 05:29:49;;;;;;;3.27;2.97;;;0.50;99.90;;;;;;5032357;28;20205;-61
2023/12/28 05:32:18;;;;;;;6.93;3.83;;;0.50;99.90;;;;;;5031467;28;20209;-62
2023/12/28 05:34:44;;;;;;;4.67;3.73;;;0.40;99.90;;;;;;5032544;28;20580;-62
2023/12/28 05:37:11;;;;;;;3.83;3.33;;;0.50;99.90;;;;;;5027225;28;20717;-61
2023/12/28 05:39:39;;;;;;;3.30;3.00;;;0.40;99.90;;;;;;5032087;28;20217;-62
2023/12/28 05:42:06;;;;;;;3.37;3.07;;;0.50;99.90;;;;;;5032381;28;20262;-62
2023/12/28 05:44:33;;;;;;;5.00;3.37;;;0.40;99.90;;;;;;5032343;28;20200;-61
2023/12/28 05:47:00;;;;;;;3.00;2.70;;;0.40;99.90;;;;;;5039886;28;20229;-62
2023/12/28 05:49:30;;;;;;;5.57;4.53;;;0.40;99.90;;;;;;5038776;28;20213;-62
2023/12/28 05:52:01;;;;;;;4.07;3.70;;;0.30;99.90;;;;;;5034814;28;20201;-61
2023/12/28 05:54:28;;;;;;;6.67;4.43;;;0.30;99.90;;;;;;5031995;28;20224;-62
2023/12/28 05:56:55;;;;;;;5.47;4.87;;;0.30;99.90;;;;;;5043934;28;20235;-61
2023/12/28 05:59:22;;;;;;;4.77;4.10;;;0.20;99.90;;;;;;5031890;28;20199;-62
2023/12/28 06:01:49;;;;;;;4.53;4.03;;;0.40;99.90;;;;;;5032115;28;20234;-62
2023/12/28 06:04:16;;;;;;;4.60;3.87;;;0.40;99.90;;;;;;5032174;28;20200;-62
2023/12/28 06:06:44;;;;;;;3.30;2.77;;;0.40;99.90;;;;;;5032734;28;20220;-62
2023/12/28 06:09:11;;;;;;;2.63;2.50;;;0.40;99.90;;;;;;5031520;28;20250;-61
2023/12/28 06:11:38;;;;;;;3.17;2.97;;;0.40;99.90;;;;;;5031983;28;20290;-61
2023/12/28 06:14:06;;;;;;;3.00;2.67;;;0.40;99.90;;;;;;5031274;28;20209;-62
2023/12/28 06:16:33;;;;;;;6.23;5.10;;;0.50;99.90;;;;;;5033277;28;20758;-61
2023/12/28 06:19:01;;;;;;;8.27;3.80;;;0.70;99.90;;;;;;5029362;28;20211;-62
2023/12/28 06:21:29;;;;;;;5.10;4.60;;;0.60;99.90;;;;;;5031415;28;20201;-62
2023/12/28 06:23:58;;;;;;;4.73;3.73;;;0.60;99.90;;;;;;5031900;28;20680;-61
2023/12/28 06:26:25;;;;;;;3.53;3.00;;;0.60;99.90;;;;;;5023893;28;20236;-62
2023/12/28 06:28:52;;;;;;;2.97;2.83;;;0.50;99.90;;;;;;5038539;28;20204;-62
2023/12/28 06:31:19;;;;;;;3.03;2.83;;;0.50;99.90;;;;;;5037631;28;20196;-62
2023/12/28 06:33:45;;;;;;;3.97;2.53;;;0.40;99.90;;;;;;5033728;28;20668;-62
2023/12/28 06:36:13;;;;;;;2.70;2.50;;;0.40;99.90;;;;;;5030951;28;20260;-62
2023/12/28 06:38:40;;;;;;;2.87;1.83;;;0.50;99.90;;;;;;5024974;28;20204;-62
2023/12/28 06:41:15;;;;;;;2.10;1.37;;;0.50;99.90;;;;;;5029815;28;20207;-61
2023/12/28 06:43:42;;;;;;;2.43;1.97;;;0.60;99.90;;;;;;5032602;28;20235;-61
2023/12/28 06:46:09;;;;;;;1.73;1.40;;;0.60;99.90;;;;;;5033088;28;20215;-62
2023/12/28 06:48:36;;;;;;;1.50;1.20;;;0.70;99.90;;;;;;5035769;28;20207;-61
2023/12/28 06:51:03;;;;;;;2.07;1.13;;;0.80;99.90;;;;;;5033863;28;20202;-62
2023/12/28 06:53:30;;;;;;;1.00;1.00;;;0.90;99.90;;;;;;5035142;28;20283;-62
2023/12/28 06:55:57;;;;;;;1.37;1.10;;;1.00;99.90;;;;;;5031480;28;20220;-61
2023/12/28 06:58:25;;;;;;;1.07;0.90;;;1.00;99.90;;;;;;5028929;28;20206;-61
2023/12/28 07:00:52;;;;;;;0.60;0.60;;;1.10;99.90;;;;;;5031359;28;20200;-62
2023/12/28 07:03:19;;;;;;;2.63;0.80;;;1.20;99.90;;;;;;5031504;28;20209;-62
2023/12/28 07:05:46;;;;;;;4.73;3.30;;;1.30;99.90;;;;;;5031227;28;20197;-61
2023/12/28 07:08:14;;;;;;;6.97;3.40;;;1.50;99.90;;;;;;5031718;28;20578;-61
2023/12/28 07:10:41;;;;;;;0.77;0.70;;;1.80;99.90;;;;;;5039506;28;20213;-61
2023/12/28 07:13:08;;;;;;;1.40;1.30;;;2.10;99.90;;;;;;5039803;28;20203;-61
2023/12/28 07:15:36;;;;;;;1.40;1.30;;;2.50;99.90;;;;;;5031322;28;20735;-61
2023/12/28 07:18:04;;;;;;;0.90;0.90;;;2.80;99.90;;;;;;5032974;28;20204;-62
2023/12/28 07:20:31;;;;;;;1.83;1.73;;;2.70;99.90;;;;;;5031228;28;20205;-62
2023/12/28 07:22:57;;;;;;;2.50;1.20;;;2.70;99.90;;;;;;5034423;28;20204;-61
2023/12/28 07:25:24;;;;;;;4.53;1.93;;;2.80;99.90;;;;;;5027407;28;20196;-62
2023/12/28 07:27:51;;;;;;;3.80;1.87;;;2.60;99.90;;;;;;5037288;28;20227;-61
2023/12/28 07:30:18;;;;;;;2.97;2.77;;;2.50;99.90;;;;;;5033410;28;20210;-61
2023/12/28 07:32:47;;;;;;;3.30;3.10;;;2.30;99.90;;;;;;5029272;28;20208;-61
2023/12/28 07:35:14;;;;;;;10.20;6.40;;;2.40;99.90;;;;;;5034113;28;20280;-62
2023/12/28 07:37:40;;;;;;;2.80;2.60;;;2.10;99.90;;;;;;5028768;28;20297;-61
2023/12/28 07:40:08;;;;;;;2.37;2.17;;;2.00;99.90;;;;;;5034136;28;20224;-62
2023/12/28 07:42:35;;;;;;;3.53;3.03;;;2.10;99.90;;;;;;5033592;28;20711;-61
2023/12/28 07:45:01;;;;;;;3.58;3.38;;;2.10;99.90;;;;;;5031274;28;20453;-62
2023/12/28 07:47:28;;;;;;;1.70;1.33;;;2.20;99.90;;;;;;5034565;28;20216;-63
2023/12/28 07:49:57;;;;;;;4.07;1.60;;;2.20;99.90;;;;;;5034178;28;20569;-67
2023/12/28 07:52:24;;;;;;;2.27;2.17;;;2.40;99.90;;;;;;5034329;28;20200;-66
2023/12/28 07:54:51;;;;;;;1.27;1.17;;;2.60;99.90;;;;;;5034476;28;20282;-66
2023/12/28 07:57:18;;;;;;;2.07;1.63;;;2.60;99.90;;;;;;5039380;28;20223;-66
2023/12/28 07:59:44;;;;;;;4.03;2.50;;;2.70;99.90;;;;;;5034075;28;20208;-66
2023/12/28 08:02:11;;;;;;;2.73;2.03;;;2.70;99.90;;;;;;5039120;28;20338;-66
2023/12/28 08:04:39;;;;;;;2.70;2.23;;;2.90;99.90;;;;;;5034341;28;20255;-67
2023/12/28 08:07:08;;;;;;;1.60;1.50;;;2.90;99.90;;;;;;5034166;28;20788;-66
2023/12/28 08:09:35;;;;;;;1.17;1.17;;;2.90;99.90;;;;;;5034026;28;20216;-70
2023/12/28 08:12:03;;;;;;;0.50;0.50;;;3.10;99.90;;;;;;5034052;28;20295;-67
2023/12/28 08:14:30;;;;;;;2.33;0.50;;;3.30;99.90;;;;;;5033753;28;20239;-66
2023/12/28 08:16:57;;;;;;;1.17;0.60;;;3.70;99.90;;;;;;5033620;28;20224;-66
2023/12/28 08:19:24;;;;;;;0.60;0.60;;;3.90;99.90;;;;;;5039268;28;20200;-66
2023/12/28 08:21:51;;;;;;;2.27;0.53;;;4.10;99.90;;;;;;5033011;28;20262;-69
2023/12/28 08:24:19;;;;;;;0.87;0.87;;;4.20;99.90;;;;;;5033588;28;20209;-69
2023/12/28 08:26:47;;;;;;;2.20;2.00;;;4.40;99.90;;;;;;5039777;28;20231;-69
2023/12/28 08:29:14;;;;;;;5.67;4.50;;;4.50;99.90;;;;;;5034480;28;20201;-64
2023/12/28 08:31:44;;;;;;;7.40;5.03;;;4.40;99.90;;;;;;5033674;28;20200;-64
2023/12/28 08:34:11;;;;;;;6.10;4.00;;;4.10;99.90;;;;;;5033044;28;20205;-65
2023/12/28 08:36:38;;;;;;;11.23;6.83;;;3.90;99.90;;;;;;5033150;28;20264;-63
2023/12/28 08:39:05;;;;;;;8.63;4.73;;;3.70;99.90;;;;;;5034933;28;20204;-64
2023/12/28 08:41:33;;;;;;;4.73;4.20;;;3.40;99.90;;;;;;5031062;28;20212;-64
2023/12/28 08:44:00;;;;;;;5.47;4.87;;;3.40;99.90;;;;;;5041869;28;20210;-63
2023/12/28 08:46:28;;;;;;;8.00;5.53;;;3.60;99.90;;;;;;5044115;28;20784;-61
2023/12/28 08:48:55;;;;;;;6.93;4.97;;;3.70;99.90;;;;;;5039629;28;20287;-66
2023/12/28 08:51:22;;;;;;;6.73;5.00;;;3.80;99.90;;;;;;5039349;28;20200;-61
2023/12/28 08:53:49;;;;;;;4.17;3.87;;;3.80;99.90;;;;;;5041953;28;20726;-61
2023/12/28 08:56:21;;;;;;;5.10;4.60;;;3.90;99.90;;;;;;5052308;28;20707;-62
2023/12/28 08:58:52;;;;;;;5.17;4.30;;;4.00;99.90;;;;;;5053345;28;20276;-63
2023/12/28 09:01:21;;;;;;;5.27;4.63;;;4.10;99.90;;;;;;5043625;28;20209;-66
2023/12/28 09:03:49;;;;;;;7.10;5.43;;;4.30;99.90;;;;;;5043382;28;20667;-67
2023/12/28 09:06:17;;;;;;;6.47;5.47;;;4.40;99.90;;;;;;5041120;28;20273;-67
2023/12/28 09:08:46;;;;;;;7.63;7.00;;;4.50;99.90;;;;;;5032653;28;20228;-65
2023/12/28 09:11:13;;;;;;;9.50;5.57;;;4.50;99.90;;;;;;5033518;28;20199;-65
2023/12/28 09:13:41;;;;;;;10.40;6.97;;;4.50;99.90;;;;;;5032698;28;20208;-65
2023/12/28 09:16:11;;;;;;;11.60;7.33;;;4.50;99.90;;;;;;5042370;28;20230;-65
2023/12/28 09:18:39;;;;;;;26.87;13.23;;;4.40;99.90;;;;;;5045170;28;20674;-63
2023/12/28 09:21:07;;;;;;;18.60;10.47;;;4.50;99.90;;;;;;5031645;28;20208;-65
2023/12/28 09:23:35;;;;;;;19.07;10.10;;;4.50;99.90;;;;;;5032826;28;20205;-63
2023/12/28 09:26:04;;;;;;;15.87;10.70;;;4.50;99.90;;;;;;5028894;28;20224;-63
2023/12/28 09:28:31;;;;;;;14.97;7.97;;;4.40;99.90;;;;;;5032333;28;20263;-63
2023/12/28 09:30:58;;;;;;;12.57;7.03;;;4.60;99.90;;;;;;5037399;28;20249;-64
2023/12/28 09:33:26;;;;;;;16.37;8.63;;;4.70;99.90;;;;;;5031962;28;20203;-64
2023/12/28 09:35:53;;;;;;;13.23;7.33;;;4.80;99.90;;;;;;5032230;28;20278;-64
2023/12/28 09:38:21;;;;;;;10.90;6.50;;;5.00;99.90;;;;;;5032562;28;20286;-68
2023/12/28 09:40:51;;;;;;;10.57;5.73;;;5.20;99.90;;;;;;5039548;28;20208;-67
2023/12/28 09:43:23;;;;;;;6.03;4.67;;;5.30;99.90;;;;;;5037950;28;20246;-66
2023/12/28 09:45:50;;;;;;;6.43;4.20;;;5.30;99.90;;;;;;5031904;28;20254;-66
2023/12/28 09:48:18;;;;;;;4.80;2.90;;;5.50;99.90;;;;;;5025680;28;20203;-64
2023/12/28 09:50:49;;;;;;;4.07;2.43;;;5.60;99.90;;;;;;5042799;28;20208;-67
2023/12/28 09:53:16;;;;;;;2.33;2.13;;;5.70;99.90;;;;;;5049406;28;20217;-65
2023/12/28 09:55:44;;;;;;;2.83;1.67;;;6.00;99.90;;;;;;5037005;28;20221;-64
2023/12/28 09:58:13;;;;;;;3.20;1.73;;;5.90;99.90;;;;;;5032225;28;20588;-64
2023/12/28 10:00:40;;;;;;;2.90;1.80;;;6.20;99.90;;;;;;5031969;28;20201;-64
2023/12/28 10:03:07;;;;;;;1.93;1.53;;;6.30;99.90;;;;;;5033063;28;20205;-65
2023/12/28 10:05:34;;;;;;;5.10;3.87;;;6.50;99.90;;;;;;5035378;28;20261;-63
2023/12/28 10:08:02;;;;;;;2.80;2.00;;;6.70;99.90;;;;;;5032282;28;20281;-61
2023/12/28 10:10:30;;;;;;;3.03;2.73;;;6.70;99.90;;;;;;5030481;28;20258;-61
2023/12/28 10:12:57;;;;;;;4.13;3.77;;;6.80;99.90;;;;;;5031781;28;20256;-61
2023/12/28 10:15:25;;;;;;;4.23;2.63;;;6.90;99.90;;;;;;5031862;28;20227;-62
2023/12/28 10:17:53;;;;;;;5.57;3.10;;;6.70;99.90;;;;;;5031836;28;20307;-61
2023/12/28 10:20:20;;;;;;;3.93;3.63;;;6.70;99.90;;;;;;5029019;28;20282;-63
2023/12/28 10:22:47;;;;;;;3.93;3.47;;;6.70;99.90;;;;;;5032004;28;20244;-69
2023/12/28 10:25:16;;;;;;;4.10;3.73;;;6.80;99.90;;;;;;5029872;28;20203;-67
2023/12/28 10:27:43;;;;;;;3.57;3.07;;;6.70;99.90;;;;;;5029883;28;20319;-69
2023/12/28 10:30:11;;;;;;;3.00;2.60;;;6.70;99.90;;;;;;5031032;28;20203;-69
2023/12/28 10:32:41;;;;;;;2.53;2.43;;;6.80;99.90;;;;;;5031608;28;20254;-65
2023/12/28 10:35:08;;;;;;;4.47;3.10;;;6.80;99.90;;;;;;5025836;28;20252;-67
2023/12/28 10:37:39;;;;;;;3.93;2.20;;;6.80;99.90;;;;;;5026963;28;20298;-66
2023/12/28 10:40:07;;;;;;;4.50;3.43;;;6.80;99.90;;;;;;5033819;28;20203;-67
2023/12/28 10:42:45;;;;;;;6.03;5.43;;;6.80;99.90;;;;;;5033907;28;20212;-64
2023/12/28 10:45:13;;;;;;;5.23;4.83;;;6.80;99.90;;;;;;5033623;28;20219;-64
2023/12/28 10:47:45;;;;;;;5.33;4.90;;;6.60;99.90;;;;;;5031795;28;20299;-64
2023/12/28 10:50:13;;;;;;;6.40;4.40;;;6.60;99.90;;;;;;5029952;28;20202;-63
2023/12/28 10:52:46;;;;;;;5.10;4.70;;;6.80;99.90;;;;;;5023900;28;20203;-64
2023/12/28 10:55:27;;;;;;;6.93;5.97;;;6.70;99.90;;;;;;5029988;28;20204;-66
2023/12/28 10:58:07;;;;;;;7.80;5.77;;;6.70;99.90;;;;;;5035030;28;20225;-63
2023/12/28 11:00:41;;;;;;;7.40;6.73;;;6.70;99.90;;;;;;5041616;28;20211;-63
2023/12/28 11:03:12;;;;;;;8.73;7.97;;;6.70;99.90;;;;;;5035276;28;20350;-63
2023/12/28 11:05:44;;;;;;;8.77;7.30;;;6.50;99.90;;;;;;5038745;28;20668;-63
2023/12/28 11:08:14;;;;;;;9.30;8.37;;;5.80;99.90;;;;;;5035215;28;20630;-63
2023/12/28 11:10:42;;;;;;;10.40;8.43;;;6.50;99.90;;;;;;5035086;28;20738;-63
2023/12/28 11:13:11;;;;;;;9.43;8.53;;;6.40;99.90;;;;;;5035056;28;20208;-63
2023/12/28 11:15:40;;;;;;;8.83;8.03;;;6.30;99.90;;;;;;5040874;28;20203;-62
2023/12/28 11:18:07;;;;;;;8.83;7.93;;;6.30;99.90;;;;;;5025875;28;20239;-63
2023/12/28 11:20:35;;;;;;;9.67;8.67;;;6.00;99.90;;;;;;5034689;28;20211;-62
2023/12/28 11:23:02;;;;;;;9.37;8.47;;;6.10;99.90;;;;;;5034764;28;20226;-62
2023/12/28 11:25:33;;;;;;;10.40;8.90;;;6.00;99.90;;;;;;5031952;28;20206;-63
2023/12/28 11:28:01;;;;;;;13.33;8.60;;;6.00;99.90;;;;;;5039677;28;20229;-62
2023/12/28 11:30:29;;;;;;;8.87;7.97;;;5.90;99.90;;;;;;5034153;28;20201;-64
2023/12/28 11:32:58;;;;;;;7.93;7.17;;;5.90;99.90;;;;;;5037852;28;20277;-63
2023/12/28 11:35:33;;;;;;;9.10;8.17;;;5.90;99.90;;;;;;5035899;28;20295;-63
2023/12/28 11:38:02;;;;;;;7.30;6.63;;;5.80;99.90;;;;;;5039237;28;20714;-63
2023/12/28 11:40:29;;;;;;;8.13;7.53;;;5.80;99.90;;;;;;5045982;28;20287;-63
2023/12/28 11:42:56;;;;;;;8.63;7.83;;;5.80;99.90;;;;;;5046851;28;20206;-63
2023/12/28 11:45:24;;;;;;;12.23;9.30;;;5.90;99.90;;;;;;5038825;28;20205;-63
2023/12/28 11:48:01;;;;;;;10.33;8.37;;;5.90;99.90;;;;;;5035219;28;20308;-63
2023/12/28 11:50:28;;;;;;;13.27;10.57;;;6.10;99.90;;;;;;5049039;28;20237;-63
2023/12/28 11:52:56;;;;;;;12.93;10.43;;;6.10;99.90;;;;;;5035701;28;20627;-69
2023/12/28 11:55:23;;;;;;;12.87;10.60;;;6.00;99.90;;;;;;5038724;28;20194;-66
2023/12/28 11:57:50;;;;;;;11.37;9.67;;;5.90;99.90;;;;;;5025154;28;20254;-66
2023/12/28 12:00:20;;;;;;;11.27;10.20;;;5.90;99.90;;;;;;5034334;28;20285;-63
2023/12/28 12:02:47;;;;;;;13.13;11.10;;;6.00;99.90;;;;;;5043853;28;20212;-67
2023/12/28 12:05:15;;;;;;;15.90;10.20;;;6.00;99.90;;;;;;5051818;28;20257;-66
2023/12/28 12:07:42;;;;;;;11.53;10.33;;;5.90;99.90;;;;;;5045384;28;20699;-66
2023/12/28 12:10:16;;;;;;;11.10;10.00;;;6.00;99.90;;;;;;5046269;28;20663;-65
2023/12/28 12:12:43;;;;;;;13.70;10.67;;;6.00;99.90;;;;;;5032755;28;20270;-66
2023/12/28 12:15:11;;;;;;;24.50;19.20;;;6.20;99.90;;;;;;5034321;28;20256;-67
2023/12/28 12:17:39;;;;;;;24.60;20.53;;;6.20;99.90;;;;;;5034582;28;20719;-64
2023/12/28 12:20:07;;;;;;;21.10;17.63;;;6.30;99.90;;;;;;5033072;28;20210;-64
2023/12/28 12:22:35;;;;;;;16.20;14.50;;;6.20;99.90;;;;;;5030285;28;20627;-65
2023/12/28 12:25:05;;;;;;;15.00;13.30;;;6.20;99.90;;;;;;5036411;28;20210;-66
2023/12/28 12:27:32;;;;;;;14.00;11.33;;;6.30;99.90;;;;;;5033558;28;20227;-66
2023/12/28 12:29:59;;;;;;;16.43;14.33;;;6.40;99.90;;;;;;5033425;28;20203;-64
2023/12/28 12:32:26;;;;;;;14.20;12.53;;;7.00;99.90;;;;;;5033374;28;20258;-64
2023/12/28 12:34:53;;;;;;;19.10;13.70;;;6.50;99.90;;;;;;5033715;28;20215;-66
2023/12/28 12:37:20;;;;;;;16.17;12.00;;;6.50;99.90;;;;;;5035149;28;20224;-65
2023/12/28 12:39:49;;;;;;;12.70;11.40;;;6.60;99.90;;;;;;5037939;28;20254;-63
2023/12/28 12:42:16;;;;;;;14.63;11.50;;;6.60;99.90;;;;;;5032121;28;20680;-63
2023/12/28 12:44:43;;;;;;;12.90;11.37;;;6.50;99.90;;;;;;5033413;28;20208;-68
2023/12/28 12:47:10;;;;;;;12.13;10.50;;;6.50;99.90;;;;;;5033205;28;20216;-65
2023/12/28 12:49:38;;;;;;;16.40;11.90;;;6.50;99.90;;;;;;5032694;28;20259;-64
2023/12/28 12:52:08;;;;;;;11.97;10.77;;;6.50;99.90;;;;;;5027412;28;20267;-64
2023/12/28 12:54:35;;;;;;;15.30;12.17;;;6.50;99.90;;;;;;5032065;28;20339;-63